Archival Weather

Phoenix Sky Harbor Intl

Phoenix, Arizona (KPHX)

Report from: Thursday, December 7, 2023 8:51 AM MST
Current time: Thursday, July 18, 2024 8:14 PM MST

Current weather – Weather history – Daily summaries
Weather forecast

Temperature14.4°C (57.9°F)
Dew point2.2°C (36.0°F)
Winds 9 kts (4.6 m/s, 10.4 mph) East-Southeast (110°)
Visibility10 mi. (16.1 km)
Clouds Few clouds 11,000 ft. (3,353 m)
Few clouds 18,000 ft. (5,486 m)
Scattered clouds 25,000 ft. (7,620 m)
Altimeter30.00 in.Hg (1016 mB)
Relative humidity44 %
Density altitude-22 ft. (-7 m)
Sea-level pressure101.5 kPa (1015 mB, 29.97 in.Hg)
Remarks Automated weather observing station with precipitation discriminator
Flight conditions Visual Meteorological Conditions
Raw dataKPHX 071551Z 11009KT 10SM FEW110 FEW180 SCT250 14/02 A3000 RMK AO2 SLP150 T01440022
An error has occurred. This application may no longer respond until reloaded. Reload 🗙